Aviation Digital Data Service (ADDS)

Output produced by METARs form (1452 UTC 19 July 2019)
found at http://aviationweather.gov/metar/data/
 
METAR text: KJOT 191435Z AUTO 22008KT 10SM CLR 30/26 A2984 RMK AO2 T03000263
Conditions at: KJOT (JOLIET , IL, US) observed 1435 UTC 19 July 2019
Temperature: 30.0°C (86°F)
Dewpoint: 26.3°C (79°F) [RH = 81%]
Pressure (altimeter): 29.84 inches Hg (1010.6 mb)
Winds: from the SW (220 degrees) at 9 MPH (8 knots; 4.1 m/s)
Visibility: 10 or more miles (16+ km)
Ceiling: at least 12,000 feet AGL
Clouds: sky clear below 12,000 feet AGL
Weather: automated observation with no human augmentation;
there may or may not be significant weather present at this time